METAR Data
IDs: Format: Raw Decoded Include TAF

Data at: 0309 UTC 25 Jan 2020

METAR for:KAWG (Washington Muni, IA, US)
Text:KAWG 250255Z AUTO 32011KT 3SM BR BKN006 OVC009 00/00 A2989 RMK AO2
Temperature: 0.0°C ( 32°F)
Dewpoint: 0.0°C ( 32°F) [RH = 100%]
Pressure (altimeter):29.89 inches Hg (1012.3 mb)
Winds:from the NW (320 degrees) at 13 MPH (11 knots; 5.7 m/s)
Visibility: 3 sm ( 5 km)
Ceiling:600 feet AGL
Clouds: broken clouds at 600 feet AGL, overcast cloud deck at 900 feet AGL
Weather:BR (mist)
QC Flag:automated observation with no human augmentation